ANZ150M NZRO-NZAA
Flight info
| Callsign | ANZ150M |
|---|---|
| Flight time | 0h 34m |
| Altitude | 13000 |
| Route | KAMLA Y871 DODKU |
| Aircraft | AT76/M-SDFGIRY/S |
Departure
| Time | 2026-04-16 07:49 |
|---|---|
| Airport | Rotorua Regional Airport (NZRO) |
Arrival
| Time | 2026-04-16 08:24 |
|---|---|
| Airport | Auckland International Airport (NZAA) |
| Time | Latitude | Longitude | Altitude | Speed | Heading |
|---|---|---|---|---|---|
| 2026-04-16 07:37 | -38.11009 | 176.31653 | 944 ft | 0 kts | 25° |
| 2026-04-16 07:45 | -38.10997 | 176.31641 | 944 ft | 7 kts | 308° |
| 2026-04-16 07:45 | -38.10984 | 176.31624 | 944 ft | 4 kts | 326° |
| 2026-04-16 07:45 | -38.10948 | 176.31629 | 943 ft | 10 kts | 343° |
| 2026-04-16 07:45 | -38.10902 | 176.31554 | 944 ft | 10 kts | 306° |
| 2026-04-16 07:46 | -38.10810 | 176.31581 | 945 ft | 21 kts | 25° |
| 2026-04-16 07:46 | -38.10662 | 176.31667 | 944 ft | 25 kts | 27° |
| 2026-04-16 07:46 | -38.10495 | 176.31770 | 945 ft | 26 kts | 24° |
| 2026-04-16 07:46 | -38.10323 | 176.31870 | 943 ft | 25 kts | 25° |
| 2026-04-16 07:47 | -38.10186 | 176.31951 | 946 ft | 20 kts | 24° |
| 2026-04-16 07:47 | -38.10085 | 176.32001 | 946 ft | 10 kts | 349° |
| 2026-04-16 07:47 | -38.10048 | 176.32025 | 947 ft | 3 kts | 107° |
| 2026-04-16 07:47 | -38.10072 | 176.32018 | 945 ft | 5 kts | 212° |
| 2026-04-16 07:48 | -38.10086 | 176.32009 | 947 ft | 0 kts | 206° |
| 2026-04-16 07:48 | -38.10153 | 176.31969 | 946 ft | 39 kts | 205° |
| 2026-04-16 07:48 | -38.10605 | 176.31701 | 944 ft | 104 kts | 205° |
| 2026-04-16 07:49 | -38.11396 | 176.31268 | 1218 ft | 131 kts | 204° |
| 2026-04-16 07:49 | -38.12267 | 176.30745 | 1656 ft | 151 kts | 210° |
| 2026-04-16 07:49 | -38.13173 | 176.29895 | 1951 ft | 176 kts | 225° |
| 2026-04-16 07:49 | -38.14112 | 176.28738 | 2262 ft | 198 kts | 226° |
| 2026-04-16 07:50 | -38.15134 | 176.27462 | 2491 ft | 218 kts | 226° |
| 2026-04-16 07:50 | -38.16288 | 176.26106 | 2269 ft | 237 kts | 223° |
| 2026-04-16 07:50 | -38.17495 | 176.24779 | 2433 ft | 235 kts | 226° |
| 2026-04-16 07:50 | -38.18419 | 176.23046 | 2587 ft | 235 kts | 239° |
| 2026-04-16 07:51 | -38.19242 | 176.21337 | 3271 ft | 217 kts | 239° |
| 2026-04-16 07:51 | -38.20000 | 176.19766 | 4048 ft | 200 kts | 240° |
| 2026-04-16 07:51 | -38.20709 | 176.18323 | 4652 ft | 186 kts | 239° |
| 2026-04-16 07:51 | -38.21373 | 176.16985 | 5252 ft | 173 kts | 239° |
| 2026-04-16 07:52 | -38.21997 | 176.15732 | 5843 ft | 163 kts | 239° |
| 2026-04-16 07:52 | -38.22597 | 176.14552 | 6368 ft | 155 kts | 239° |
| 2026-04-16 07:52 | -38.23170 | 176.13396 | 6710 ft | 156 kts | 241° |
| 2026-04-16 07:52 | -38.23478 | 176.12128 | 7117 ft | 157 kts | 276° |
| 2026-04-16 07:53 | -38.22817 | 176.10956 | 7540 ft | 174 kts | 308° |
| 2026-04-16 07:53 | -38.21875 | 176.09957 | 7917 ft | 179 kts | 310° |
| 2026-04-16 07:53 | -38.20896 | 176.08981 | 8255 ft | 180 kts | 313° |
| 2026-04-16 07:53 | -38.19895 | 176.08025 | 8645 ft | 180 kts | 312° |
| 2026-04-16 07:54 | -38.18896 | 176.07066 | 9034 ft | 180 kts | 311° |
| 2026-04-16 07:54 | -38.17907 | 176.06090 | 9397 ft | 180 kts | 310° |
| 2026-04-16 07:54 | -38.16890 | 176.05154 | 9731 ft | 187 kts | 324° |
| 2026-04-16 07:54 | -38.15549 | 176.04809 | 10066 ft | 201 kts | 340° |
| 2026-04-16 07:55 | -38.14155 | 176.04594 | 10430 ft | 202 kts | 341° |
| 2026-04-16 07:55 | -38.12776 | 176.04396 | 10770 ft | 202 kts | 340° |
| 2026-04-16 07:55 | -38.11385 | 176.04183 | 11151 ft | 201 kts | 339° |
| 2026-04-16 07:55 | -38.10002 | 176.03956 | 11494 ft | 200 kts | 338° |
| 2026-04-16 07:56 | -38.08618 | 176.03709 | 11824 ft | 200 kts | 338° |
| 2026-04-16 07:56 | -38.07245 | 176.03456 | 12139 ft | 199 kts | 336° |
| 2026-04-16 07:56 | -38.05851 | 176.03191 | 12279 ft | 208 kts | 337° |
| 2026-04-16 07:56 | -38.04452 | 176.02925 | 12757 ft | 199 kts | 337° |
| 2026-04-16 07:57 | -38.03144 | 176.02701 | 13256 ft | 190 kts | 336° |
| 2026-04-16 07:57 | -38.01752 | 176.02421 | 13128 ft | 213 kts | 336° |
| 2026-04-16 07:57 | -38.00232 | 176.02113 | 13066 ft | 229 kts | 338° |
| 2026-04-16 07:57 | -37.98617 | 176.01812 | 13032 ft | 239 kts | 339° |
| 2026-04-16 07:58 | -37.96940 | 176.01511 | 13019 ft | 246 kts | 339° |
| 2026-04-16 07:58 | -37.95231 | 176.01204 | 13020 ft | 251 kts | 340° |
| 2026-04-16 07:58 | -37.93489 | 176.00884 | 13016 ft | 255 kts | 340° |
| 2026-04-16 07:58 | -37.91724 | 176.00557 | 13003 ft | 257 kts | 340° |
| 2026-04-16 07:59 | -37.89958 | 176.00231 | 13005 ft | 257 kts | 340° |
| 2026-04-16 07:59 | -37.88183 | 175.99904 | 13000 ft | 258 kts | 340° |
| 2026-04-16 07:59 | -37.86408 | 175.99584 | 12993 ft | 258 kts | 340° |
| 2026-04-16 07:59 | -37.84631 | 175.99256 | 13004 ft | 257 kts | 340° |
| 2026-04-16 08:00 | -37.82864 | 175.98929 | 12989 ft | 256 kts | 340° |
| 2026-04-16 08:00 | -37.81097 | 175.98610 | 13006 ft | 256 kts | 340° |
| 2026-04-16 08:00 | -37.79336 | 175.98288 | 13009 ft | 257 kts | 340° |
| 2026-04-16 08:00 | -37.77567 | 175.97962 | 13006 ft | 257 kts | 340° |
| 2026-04-16 08:01 | -37.75800 | 175.97640 | 13008 ft | 257 kts | 340° |
| 2026-04-16 08:01 | -37.74035 | 175.97314 | 13010 ft | 257 kts | 340° |
| 2026-04-16 08:01 | -37.72268 | 175.96992 | 13010 ft | 257 kts | 340° |
| 2026-04-16 08:01 | -37.70506 | 175.96664 | 13013 ft | 255 kts | 340° |
| 2026-04-16 08:02 | -37.68895 | 175.95992 | 13014 ft | 238 kts | 323° |
| 2026-04-16 08:02 | -37.66081 | 175.93888 | 13003 ft | 233 kts | 315° |
| 2026-04-16 08:02 | -37.64747 | 175.92729 | 13010 ft | 233 kts | 315° |
| 2026-04-16 08:03 | -37.63429 | 175.91571 | 13009 ft | 234 kts | 315° |
| 2026-04-16 08:03 | -37.62080 | 175.90409 | 13013 ft | 236 kts | 315° |
| 2026-04-16 08:03 | -37.60711 | 175.89263 | 13007 ft | 236 kts | 316° |
| 2026-04-16 08:03 | -37.59338 | 175.88120 | 13004 ft | 236 kts | 315° |
| 2026-04-16 08:04 | -37.57964 | 175.86974 | 13002 ft | 236 kts | 316° |
| 2026-04-16 08:04 | -37.56594 | 175.85832 | 13019 ft | 237 kts | 316° |
| 2026-04-16 08:04 | -37.55213 | 175.84681 | 13018 ft | 239 kts | 316° |
| 2026-04-16 08:04 | -37.53825 | 175.83526 | 13001 ft | 239 kts | 316° |
| 2026-04-16 08:05 | -37.52438 | 175.82376 | 12975 ft | 238 kts | 316° |
| 2026-04-16 08:05 | -37.51056 | 175.81225 | 13006 ft | 238 kts | 316° |
| 2026-04-16 08:05 | -37.49670 | 175.80083 | 13005 ft | 237 kts | 316° |
| 2026-04-16 08:05 | -37.48293 | 175.78935 | 13016 ft | 238 kts | 316° |
| 2026-04-16 08:06 | -37.46913 | 175.77784 | 13007 ft | 239 kts | 316° |
| 2026-04-16 08:06 | -37.45525 | 175.76630 | 13004 ft | 239 kts | 316° |
| 2026-04-16 08:06 | -37.44173 | 175.75436 | 13003 ft | 233 kts | 309° |
| 2026-04-16 08:06 | -37.43061 | 175.74004 | 13006 ft | 227 kts | 303° |
| 2026-04-16 08:07 | -37.42062 | 175.72506 | 13008 ft | 226 kts | 301° |
| 2026-04-16 08:07 | -37.41065 | 175.70975 | 13013 ft | 226 kts | 301° |
| 2026-04-16 08:07 | -37.40061 | 175.69446 | 13009 ft | 227 kts | 302° |
| 2026-04-16 08:07 | -37.39031 | 175.67932 | 13006 ft | 228 kts | 303° |
| 2026-04-16 08:08 | -37.37982 | 175.66425 | 13007 ft | 229 kts | 303° |
| 2026-04-16 08:08 | -37.36937 | 175.64922 | 13008 ft | 228 kts | 303° |
| 2026-04-16 08:08 | -37.35893 | 175.63415 | 13009 ft | 228 kts | 303° |
| 2026-04-16 08:08 | -37.34852 | 175.61917 | 13010 ft | 228 kts | 303° |
| 2026-04-16 08:09 | -37.33811 | 175.60416 | 13018 ft | 228 kts | 303° |
| 2026-04-16 08:09 | -37.32773 | 175.58920 | 13019 ft | 227 kts | 303° |
| 2026-04-16 08:09 | -37.31735 | 175.57424 | 13020 ft | 227 kts | 303° |
| 2026-04-16 08:09 | -37.30696 | 175.55926 | 13020 ft | 228 kts | 303° |
| 2026-04-16 08:10 | -37.29655 | 175.54428 | 13020 ft | 227 kts | 303° |
| 2026-04-16 08:10 | -37.28702 | 175.53059 | 13020 ft | 228 kts | 303° |
| 2026-04-16 08:10 | -37.27660 | 175.51563 | 13014 ft | 228 kts | 303° |
| 2026-04-16 08:10 | -37.26617 | 175.50065 | 13016 ft | 228 kts | 303° |
| 2026-04-16 08:11 | -37.25572 | 175.48563 | 12991 ft | 230 kts | 303° |
| 2026-04-16 08:11 | -37.24485 | 175.46957 | 11302 ft | 274 kts | 300° |
| 2026-04-16 08:11 | -37.23415 | 175.45138 | 11156 ft | 254 kts | 303° |
| 2026-04-16 08:11 | -37.22206 | 175.43530 | 10778 ft | 251 kts | 307° |
| 2026-04-16 08:12 | -37.20984 | 175.41985 | 10409 ft | 248 kts | 307° |
| 2026-04-16 08:12 | -37.19815 | 175.40422 | 10114 ft | 243 kts | 305° |
| 2026-04-16 08:12 | -37.18709 | 175.38840 | 9815 ft | 240 kts | 304° |
| 2026-04-16 08:12 | -37.17617 | 175.37253 | 9491 ft | 240 kts | 304° |
| 2026-04-16 08:13 | -37.16518 | 175.35674 | 9169 ft | 240 kts | 304° |
| 2026-04-16 08:13 | -37.15417 | 175.34099 | 8845 ft | 241 kts | 304° |
| 2026-04-16 08:13 | -37.14313 | 175.32517 | 8517 ft | 241 kts | 304° |
| 2026-04-16 08:13 | -37.13224 | 175.30965 | 8191 ft | 241 kts | 304° |
| 2026-04-16 08:14 | -37.12120 | 175.29386 | 7871 ft | 241 kts | 305° |
| 2026-04-16 08:14 | -37.11016 | 175.27810 | 7549 ft | 241 kts | 305° |
| 2026-04-16 08:14 | -37.09914 | 175.26237 | 7247 ft | 239 kts | 305° |
| 2026-04-16 08:14 | -37.08816 | 175.24674 | 6958 ft | 239 kts | 305° |
| 2026-04-16 08:15 | -37.07721 | 175.23110 | 6648 ft | 239 kts | 305° |
| 2026-04-16 08:15 | -37.06626 | 175.21551 | 6338 ft | 238 kts | 305° |
| 2026-04-16 08:15 | -37.05534 | 175.19999 | 6049 ft | 238 kts | 305° |
| 2026-04-16 08:15 | -37.04439 | 175.18445 | 5764 ft | 238 kts | 305° |
| 2026-04-16 08:16 | -37.03341 | 175.16885 | 5500 ft | 239 kts | 304° |
| 2026-04-16 08:16 | -37.02255 | 175.15331 | 5312 ft | 235 kts | 304° |
| 2026-04-16 08:16 | -37.01176 | 175.13793 | 5093 ft | 234 kts | 305° |
| 2026-04-16 08:16 | -37.00102 | 175.12267 | 4902 ft | 232 kts | 305° |
| 2026-04-16 08:17 | -36.99040 | 175.10758 | 4682 ft | 229 kts | 305° |
| 2026-04-16 08:17 | -36.97990 | 175.09267 | 4513 ft | 228 kts | 305° |
| 2026-04-16 08:17 | -36.96943 | 175.07786 | 4324 ft | 227 kts | 305° |
| 2026-04-16 08:17 | -36.95894 | 175.06302 | 4135 ft | 226 kts | 306° |
| 2026-04-16 08:18 | -36.94912 | 175.04809 | 3916 ft | 215 kts | 296° |
| 2026-04-16 08:19 | -36.96988 | 174.93832 | 2755 ft | 156 kts | 249° |
| 2026-04-16 08:20 | -36.97326 | 174.92661 | 2530 ft | 136 kts | 249° |
| 2026-04-16 08:20 | -36.97637 | 174.91574 | 2306 ft | 131 kts | 250° |
| 2026-04-16 08:20 | -36.97928 | 174.90515 | 2093 ft | 126 kts | 250° |
| 2026-04-16 08:20 | -36.98200 | 174.89510 | 1888 ft | 116 kts | 250° |
| 2026-04-16 08:21 | -36.98439 | 174.88611 | 1683 ft | 103 kts | 250° |
| 2026-04-16 08:21 | -36.98659 | 174.87784 | 1477 ft | 98 kts | 249° |
| 2026-04-16 08:21 | -36.98885 | 174.86973 | 1254 ft | 99 kts | 248° |
| 2026-04-16 08:21 | -36.99115 | 174.86159 | 1008 ft | 99 kts | 250° |
| 2026-04-16 08:22 | -36.99341 | 174.85347 | 861 ft | 104 kts | 249° |
| 2026-04-16 08:22 | -36.99588 | 174.84471 | 771 ft | 106 kts | 249° |
| 2026-04-16 08:22 | -36.99838 | 174.83606 | 611 ft | 106 kts | 249° |
| 2026-04-16 08:22 | -37.00069 | 174.82745 | 410 ft | 103 kts | 251° |
| 2026-04-16 08:23 | -37.00287 | 174.81924 | 263 ft | 98 kts | 249° |
| 2026-04-16 08:23 | -37.00514 | 174.81141 | 174 ft | 96 kts | 249° |
| 2026-04-16 08:23 | -37.00724 | 174.80367 | 43 ft | 92 kts | 250° |
| 2026-04-16 08:23 | -37.00910 | 174.79698 | 24 ft | 67 kts | 251° |
| 2026-04-16 08:24 | -37.01037 | 174.79230 | 22 ft | 47 kts | 253° |
| 2026-04-16 08:24 | -37.01064 | 174.78929 | 24 ft | 26 kts | 278° |
| 2026-04-16 08:24 | -37.01041 | 174.78770 | 24 ft | 10 kts | 284° |
| 2026-04-16 08:24 | -37.00983 | 174.78756 | 23 ft | 11 kts | 26° |
| 2026-04-16 08:25 | -37.00955 | 174.78838 | 22 ft | 11 kts | 71° |
| 2026-04-16 08:25 | -37.00926 | 174.78938 | 22 ft | 14 kts | 71° |
| 2026-04-16 08:25 | -37.00894 | 174.79054 | 24 ft | 15 kts | 70° |
| 2026-04-16 08:25 | -37.00861 | 174.79173 | 22 ft | 14 kts | 70° |
| 2026-04-16 08:26 | -37.00836 | 174.79263 | 22 ft | 19 kts | 71° |
| 2026-04-16 08:26 | -37.00770 | 174.79325 | 23 ft | 14 kts | 339° |
| 2026-04-16 08:26 | -37.00718 | 174.79372 | 24 ft | 11 kts | 66° |
| 2026-04-16 08:26 | -37.00675 | 174.79448 | 24 ft | 10 kts | 13° |
| 2026-04-16 08:27 | -37.00620 | 174.79423 | 26 ft | 4 kts | 311° |
| 2026-04-16 08:27 | -37.00611 | 174.79392 | 22 ft | 2 kts | 285° |
| 2026-04-16 08:27 | -37.00608 | 174.79374 | 22 ft | 0 kts | 282° |